createdAt,value
2022-09-14T00:00:32.609Z,19.40
2022-09-14T00:15:22.946Z,19.40
2022-09-14T00:30:22.671Z,19.30
2022-09-14T00:45:22.754Z,19.10
2022-09-14T01:00:32.376Z,19.05
2022-09-14T01:15:23.123Z,19.07
2022-09-14T01:30:26.330Z,19.08
2022-09-14T01:45:22.763Z,19.00
2022-09-14T02:00:38.439Z,18.90
2022-09-14T02:15:23.322Z,18.83
2022-09-14T02:30:23.590Z,18.85
2022-09-14T02:45:23.407Z,18.95
2022-09-14T03:00:23.709Z,19.03
2022-09-14T03:15:23.038Z,18.83
2022-09-14T03:30:22.980Z,18.83
2022-09-14T03:45:23.037Z,18.60
2022-09-14T04:00:36.495Z,18.60
2022-09-14T04:15:22.949Z,18.62
2022-09-14T04:30:24.352Z,18.60
2022-09-14T04:45:23.007Z,18.58
2022-09-14T05:00:23.332Z,18.67
2022-09-14T05:15:23.048Z,18.55
2022-09-14T05:30:23.505Z,18.47
2022-09-14T05:45:23.104Z,18.50
2022-09-14T06:00:42.528Z,18.60
2022-09-14T06:15:23.139Z,18.73
2022-09-14T06:30:29.905Z,18.95
2022-09-14T06:45:23.455Z,19.05
2022-09-14T07:00:25.974Z,19.23
2022-09-14T07:15:23.356Z,19.33
2022-09-14T07:30:23.938Z,19.95
2022-09-14T07:45:23.171Z,20.52
2022-09-14T08:00:24.266Z,21.67
2022-09-14T08:15:27.805Z,22.05
2022-09-14T08:30:29.067Z,22.25
2022-09-14T08:45:23.409Z,22.53
2022-09-14T09:00:24.931Z,22.55
2022-09-14T09:15:23.380Z,22.88
2022-09-14T09:30:24.522Z,22.83
2022-09-14T09:45:23.460Z,22.92
2022-09-14T10:00:24.280Z,23.15
2022-09-14T10:15:23.449Z,23.77
2022-09-14T10:30:23.659Z,24.02
2022-09-14T10:45:23.543Z,24.13
2022-09-14T11:00:25.995Z,24.38
2022-09-14T11:15:23.665Z,24.67
2022-09-14T11:30:32.750Z,24.63
2022-09-14T11:45:32.557Z,24.75
2022-09-14T12:00:34.077Z,24.83
2022-09-14T12:15:22.918Z,24.38
2022-09-14T12:30:26.941Z,23.90
2022-09-14T12:45:22.696Z,23.27
2022-09-14T13:00:22.762Z,22.95
2022-09-14T13:15:22.856Z,22.58
2022-09-14T13:30:27.698Z,22.08
2022-09-14T13:45:22.766Z,21.93
2022-09-14T14:00:36.665Z,21.70
2022-09-14T14:15:22.783Z,22.00
2022-09-14T14:30:22.872Z,22.10
2022-09-14T14:45:22.818Z,21.92
2022-09-14T15:00:24.874Z,21.15
2022-09-14T15:15:22.888Z,20.92
2022-09-14T15:30:22.867Z,20.85
2022-09-14T15:41:24.514Z,21.50
2022-09-14T15:56:10.987Z,20.77
2022-09-14T16:11:11.420Z,20.88
2022-09-14T16:16:50.396Z,21.50
2022-09-14T16:31:38.183Z,20.90
2022-09-14T16:46:38.480Z,20.90
2022-09-14T17:01:38.366Z,20.75
2022-09-14T17:15:23.408Z,20.70
2022-09-14T17:30:23.340Z,20.70
2022-09-14T17:45:23.495Z,20.10
2022-09-14T18:00:25.255Z,19.92
2022-09-14T18:15:22.905Z,19.88
2022-09-14T18:30:25.671Z,19.58
2022-09-14T18:45:22.942Z,19.42
2022-09-14T19:00:25.256Z,19.25
2022-09-14T19:15:22.910Z,19.37
2022-09-14T19:30:26.225Z,19.27
2022-09-14T19:45:22.815Z,19.17
2022-09-14T20:00:23.052Z,19.00
2022-09-14T20:15:22.843Z,18.97
2022-09-14T20:30:23.375Z,18.90
2022-09-14T20:45:22.939Z,18.67
2022-09-14T21:00:29.062Z,18.58
2022-09-14T21:15:23.076Z,18.42
2022-09-14T21:30:23.101Z,18.33
2022-09-14T21:45:23.089Z,18.10
2022-09-14T22:00:40.353Z,18.50
2022-09-14T22:15:23.087Z,18.02
2022-09-14T22:30:23.261Z,17.90
2022-09-14T22:45:23.059Z,17.67
2022-09-14T23:00:31.808Z,17.65
2022-09-14T23:15:23.086Z,17.57
2022-09-14T23:30:23.165Z,17.97
2022-09-14T23:45:23.137Z,18.15
